createdAt,value
2018-02-24T00:00:18.060Z,19.97
2018-02-24T00:02:48.136Z,18.07
2018-02-24T00:05:18.788Z,17.97
2018-02-24T00:07:49.326Z,18.50
2018-02-24T00:10:20.162Z,18.07
2018-02-24T00:12:50.138Z,16.77
2018-02-24T00:15:21.510Z,17.97
2018-02-24T00:17:51.831Z,17.77
2018-02-24T00:20:22.359Z,19.23
2018-02-24T00:22:52.862Z,17.73
2018-02-24T00:25:23.288Z,18.33
2018-02-24T00:27:54.056Z,19.07
2018-02-24T00:30:23.959Z,18.77
2018-02-24T00:32:54.266Z,18.53
2018-02-24T00:35:24.547Z,20.03
2018-02-24T00:37:54.994Z,18.33
2018-02-24T00:40:25.353Z,19.50
2018-02-24T00:42:55.834Z,19.87
2018-02-24T00:45:25.628Z,21.40
2018-02-24T00:47:55.379Z,21.13
2018-02-24T00:50:26.493Z,22.00
2018-02-24T00:52:56.920Z,21.10
2018-02-24T00:55:27.863Z,20.63
2018-02-24T00:57:58.228Z,19.47
2018-02-24T01:00:28.638Z,19.90
2018-02-24T01:02:59.445Z,18.97
2018-02-24T01:05:29.727Z,21.57
2018-02-24T01:08:00.301Z,19.27
2018-02-24T01:10:30.723Z,20.10
2018-02-24T01:13:01.095Z,18.83
2018-02-24T01:15:31.531Z,20.73
2018-02-24T01:18:01.887Z,20.33
2018-02-24T01:20:32.099Z,20.80
2018-02-24T01:23:03.209Z,19.87
2018-02-24T01:25:33.585Z,21.60
2018-02-24T01:28:04.317Z,20.10
2018-02-24T01:30:34.628Z,20.07
2018-02-24T01:33:05.112Z,20.30
2018-02-24T01:35:35.555Z,20.60
2018-02-24T01:38:06.136Z,19.83
2018-02-24T01:40:38.073Z,21.53
2018-02-24T01:43:08.619Z,21.23
2018-02-24T01:45:38.865Z,19.77
2018-02-24T01:48:08.623Z,20.70
2018-02-24T01:50:42.820Z,20.23
2018-02-24T01:53:12.974Z,20.30
2018-02-24T01:55:43.142Z,21.03
2018-02-24T01:58:13.364Z,21.00
2018-02-24T02:00:43.612Z,20.17
2018-02-24T02:03:14.508Z,22.10
2018-02-24T02:05:44.712Z,20.80
2018-02-24T02:08:15.591Z,20.97
2018-02-24T02:10:45.713Z,18.33
2018-02-24T02:13:16.358Z,19.13
2018-02-24T02:15:47.041Z,20.83
2018-02-24T02:18:16.993Z,20.17
2018-02-24T02:20:47.041Z,19.37
2018-02-24T02:23:17.413Z,19.07
2018-02-24T02:25:47.806Z,21.80
2018-02-24T02:28:18.095Z,20.97
2018-02-24T02:30:48.348Z,20.97
2018-02-24T02:33:18.758Z,21.57
2018-02-24T02:35:49.202Z,22.37
2018-02-24T02:38:19.789Z,20.87
2018-02-24T02:40:50.217Z,20.40
2018-02-24T02:43:20.725Z,21.57
2018-02-24T02:45:50.549Z,20.57
2018-02-24T02:48:20.973Z,20.20
2018-02-24T02:50:52.217Z,21.13
2018-02-24T02:53:22.543Z,22.07
2018-02-24T02:55:53.038Z,21.50
2018-02-24T02:58:23.395Z,21.57
2018-02-24T03:00:53.805Z,23.00
2018-02-24T03:03:24.217Z,21.03
2018-02-24T03:05:54.586Z,20.93
2018-02-24T03:08:24.601Z,20.97
2018-02-24T03:10:55.047Z,21.97
2018-02-24T03:13:25.397Z,20.70
2018-02-24T03:15:55.800Z,22.13
2018-02-24T03:18:25.586Z,22.63
2018-02-24T03:20:56.027Z,21.43
2018-02-24T03:23:26.759Z,22.40
2018-02-24T03:25:57.098Z,21.70
2018-02-24T03:28:27.542Z,22.33
2018-02-24T03:30:58.338Z,21.10
2018-02-24T03:33:29.062Z,22.10
2018-02-24T03:35:58.916Z,21.73
2018-02-24T03:38:29.283Z,22.00
2018-02-24T03:40:59.578Z,22.50
2018-02-24T03:43:30.425Z,22.07
2018-02-24T03:46:12.532Z,21.50
2018-02-24T03:48:42.401Z,23.03
2018-02-24T03:51:12.921Z,23.90
2018-02-24T03:53:42.822Z,22.97
2018-02-24T03:56:13.135Z,23.23
2018-02-24T03:58:43.299Z,22.27
2018-02-24T04:01:13.654Z,24.33
2018-02-24T04:03:43.989Z,23.03
2018-02-24T04:06:14.297Z,23.07
2018-02-24T04:08:44.615Z,23.33
2018-02-24T04:11:14.561Z,23.53
2018-02-24T04:13:45.330Z,25.53
2018-02-24T04:16:16.082Z,23.17
2018-02-24T04:18:47.723Z,24.00
2018-02-24T04:21:17.964Z,23.97
2018-02-24T04:23:48.848Z,25.60
2018-02-24T04:26:19.000Z,24.13
2018-02-24T04:28:50.347Z,24.50
2018-02-24T04:31:20.718Z,25.93
2018-02-24T04:33:50.917Z,24.87
2018-02-24T04:36:21.571Z,26.93
2018-02-24T04:38:52.260Z,26.27
2018-02-24T04:41:22.780Z,25.70
2018-02-24T04:43:53.121Z,25.33
2018-02-24T04:46:23.307Z,26.73
2018-02-24T04:48:53.812Z,25.40
2018-02-24T04:51:23.682Z,26.57
2018-02-24T04:53:54.038Z,24.73
2018-02-24T04:56:24.540Z,26.63
2018-02-24T04:58:55.320Z,26.43
2018-02-24T05:01:25.863Z,26.37
2018-02-24T05:03:56.364Z,25.80
2018-02-24T05:06:26.835Z,26.73
2018-02-24T05:08:57.336Z,27.10
2018-02-24T05:11:27.745Z,26.67
2018-02-24T05:13:58.295Z,26.57
2018-02-24T05:16:28.705Z,25.93
2018-02-24T05:18:59.298Z,26.60
2018-02-24T05:21:29.761Z,27.07
2018-02-24T05:24:00.190Z,31.83
2018-02-24T05:26:30.452Z,27.63
2018-02-24T05:29:00.948Z,26.57
2018-02-24T05:31:31.442Z,25.53
2018-02-24T05:34:02.276Z,27.70
2018-02-24T05:36:32.585Z,25.80
2018-02-24T05:39:04.022Z,27.33
2018-02-24T05:41:33.958Z,26.97
2018-02-24T05:44:04.398Z,29.17
2018-02-24T05:46:35.155Z,27.80
2018-02-24T05:49:05.399Z,28.73
2018-02-24T05:51:35.788Z,29.10
2018-02-24T05:54:05.925Z,28.03
2018-02-24T05:56:35.795Z,28.17
2018-02-24T05:59:06.468Z,30.50
2018-02-24T06:01:37.238Z,29.43
2018-02-24T06:04:07.214Z,28.10
2018-02-24T06:06:37.519Z,29.17
2018-02-24T06:09:07.819Z,30.80
2018-02-24T06:11:38.635Z,29.83
2018-02-24T06:14:10.699Z,28.67
2018-02-24T06:16:41.313Z,30.70
2018-02-24T06:19:11.870Z,30.47
2018-02-24T06:21:42.683Z,30.43
2018-02-24T06:24:12.750Z,29.20
2018-02-24T06:26:43.716Z,30.33
2018-02-24T06:29:14.561Z,28.50
2018-02-24T06:31:45.579Z,28.10
2018-02-24T06:34:16.855Z,29.67
2018-02-24T06:36:48.281Z,29.47
2018-02-24T06:39:19.514Z,30.17
2018-02-24T06:41:49.706Z,28.77
2018-02-24T06:44:20.091Z,29.10
2018-02-24T06:46:50.315Z,30.17
2018-02-24T06:49:20.749Z,29.00
2018-02-24T06:51:51.236Z,27.80
2018-02-24T06:54:21.588Z,28.10
2018-02-24T06:56:51.543Z,28.63
2018-02-24T06:59:22.087Z,28.53
2018-02-24T07:01:52.701Z,28.40
2018-02-24T07:04:22.584Z,28.90
2018-02-24T07:06:53.018Z,31.10
2018-02-24T07:09:23.501Z,29.00
2018-02-24T07:11:53.779Z,29.07
2018-02-24T07:14:24.300Z,28.07
2018-02-24T07:16:54.204Z,28.20
2018-02-24T07:19:24.672Z,28.50
2018-02-24T07:21:55.060Z,30.10
2018-02-24T07:24:25.414Z,29.07
2018-02-24T07:26:55.237Z,30.20
2018-02-24T07:29:25.632Z,29.40
2018-02-24T07:31:56.044Z,27.80
2018-02-24T07:34:26.518Z,29.27
2018-02-24T07:36:57.156Z,29.00
2018-02-24T07:39:27.608Z,28.67
2018-02-24T07:41:57.369Z,27.37
2018-02-24T07:44:28.800Z,28.87
2018-02-24T07:47:01.985Z,27.13
2018-02-24T07:49:32.629Z,26.13
2018-02-24T07:52:03.234Z,27.70
2018-02-24T07:54:33.584Z,26.47
2018-02-24T07:57:04.093Z,26.97
2018-02-24T07:59:34.410Z,27.57
2018-02-24T08:02:05.172Z,28.27
2018-02-24T08:04:35.971Z,27.13
2018-02-24T08:07:06.459Z,26.50
2018-02-24T08:09:37.181Z,26.23
2018-02-24T08:12:07.518Z,26.93
2018-02-24T08:14:38.243Z,26.37
2018-02-24T08:17:08.628Z,27.17
2018-02-24T08:19:38.680Z,25.77
2018-02-24T08:22:09.233Z,27.57
2018-02-24T08:24:39.559Z,25.53
2018-02-24T08:27:09.761Z,25.90
2018-02-24T08:29:40.340Z,25.67
2018-02-24T08:32:11.014Z,26.53
2018-02-24T08:34:41.822Z,25.13
2018-02-24T08:37:12.243Z,24.97
2018-02-24T08:39:43.012Z,25.30
2018-02-24T08:42:13.513Z,25.30
2018-02-24T08:44:44.062Z,25.17
2018-02-24T08:47:15.564Z,25.00
2018-02-24T08:49:46.552Z,24.30
2018-02-24T08:52:17.086Z,26.70
2018-02-24T08:54:47.460Z,23.13
2018-02-24T08:57:17.874Z,24.17
2018-02-24T08:59:48.550Z,21.20
2018-02-24T09:02:18.863Z,23.20
2018-02-24T09:04:49.928Z,24.17
2018-02-24T09:07:20.233Z,23.27
2018-02-24T09:09:51.042Z,23.57
2018-02-24T09:12:21.752Z,23.80
2018-02-24T09:14:52.148Z,23.43
2018-02-24T09:17:22.679Z,24.63
2018-02-24T09:19:52.910Z,22.93
2018-02-24T09:22:23.225Z,22.77
2018-02-24T09:24:53.134Z,21.93
2018-02-24T09:27:23.618Z,23.27
2018-02-24T09:29:54.216Z,22.93
2018-02-24T09:32:24.227Z,22.97
2018-02-24T09:34:54.963Z,25.03
2018-02-24T09:37:25.732Z,25.20
2018-02-24T09:39:56.517Z,23.97
2018-02-24T09:42:27.186Z,22.80
2018-02-24T09:44:57.983Z,21.90
2018-02-24T09:47:28.436Z,23.50
2018-02-24T09:49:59.192Z,23.63
2018-02-24T09:52:29.771Z,22.40
2018-02-24T09:55:00.119Z,21.93
2018-02-24T09:57:31.006Z,23.53
2018-02-24T10:00:00.982Z,24.27
2018-02-24T10:02:31.880Z,24.03
2018-02-24T10:05:02.740Z,22.53
2018-02-24T10:07:33.607Z,21.43
2018-02-24T10:10:04.542Z,22.80
2018-02-24T10:12:36.082Z,22.90
2018-02-24T10:15:06.641Z,22.70
2018-02-24T10:17:36.762Z,23.00
2018-02-24T10:20:07.200Z,20.83
2018-02-24T10:22:37.279Z,23.43
2018-02-24T10:25:08.680Z,22.87
2018-02-24T10:27:38.483Z,23.17
2018-02-24T10:30:09.046Z,23.47
2018-02-24T10:32:39.658Z,23.00
2018-02-24T10:35:10.160Z,21.93
2018-02-24T10:37:39.942Z,21.53
2018-02-24T10:40:10.429Z,21.10
2018-02-24T10:42:40.786Z,20.93
2018-02-24T10:45:12.091Z,21.00
2018-02-24T10:47:42.680Z,22.47
2018-02-24T10:50:13.200Z,22.60
2018-02-24T10:52:43.739Z,21.07
2018-02-24T10:55:14.923Z,20.53
2018-02-24T10:57:45.322Z,21.13
2018-02-24T11:00:16.186Z,19.73
2018-02-24T11:02:46.633Z,18.73
2018-02-24T11:05:17.097Z,20.53
2018-02-24T11:07:47.877Z,19.50
2018-02-24T11:10:19.059Z,19.30
2018-02-24T11:12:49.452Z,17.77
2018-02-24T11:15:19.951Z,17.87
2018-02-24T11:17:49.984Z,17.70
2018-02-24T11:20:20.243Z,17.77
2018-02-24T11:22:49.992Z,17.70
2018-02-24T11:25:20.388Z,19.27
2018-02-24T11:27:50.916Z,18.87
2018-02-24T11:30:21.476Z,18.30
2018-02-24T11:32:52.057Z,19.20
2018-02-24T11:35:23.388Z,17.27
2018-02-24T11:37:53.853Z,19.40
2018-02-24T11:40:24.680Z,19.37
2018-02-24T11:42:55.087Z,17.27
2018-02-24T11:45:25.676Z,18.43
2018-02-24T11:47:55.944Z,19.83
2018-02-24T11:50:26.465Z,21.63
2018-02-24T11:52:57.109Z,19.93
2018-02-24T11:55:27.686Z,17.60
2018-02-24T11:57:58.324Z,20.00
2018-02-24T12:00:28.775Z,19.97
2018-02-24T12:02:58.840Z,18.80
2018-02-24T12:05:28.641Z,18.70
2018-02-24T12:07:59.138Z,18.23
2018-02-24T12:10:29.583Z,18.33
2018-02-24T12:13:00.116Z,18.47
2018-02-24T12:15:30.546Z,19.50
2018-02-24T12:18:01.092Z,18.97
2018-02-24T12:20:31.502Z,18.30
2018-02-24T12:23:02.068Z,17.30
2018-02-24T12:25:31.859Z,17.10
2018-02-24T12:28:02.437Z,19.07
2018-02-24T12:30:32.866Z,19.60
2018-02-24T12:33:02.843Z,18.20
2018-02-24T12:35:32.748Z,18.77
2018-02-24T12:38:03.365Z,18.60
2018-02-24T12:40:34.928Z,19.40
2018-02-24T12:43:05.419Z,18.67
2018-02-24T12:45:35.546Z,18.03
2018-02-24T12:48:05.355Z,17.83
2018-02-24T12:50:35.640Z,18.80
2018-02-24T12:53:05.988Z,17.67
2018-02-24T12:55:36.983Z,17.17
2018-02-24T12:58:07.898Z,16.13
2018-02-24T13:00:38.597Z,18.63
2018-02-24T13:03:08.976Z,18.20
2018-02-24T13:05:39.791Z,18.60
2018-02-24T13:08:10.301Z,18.07
2018-02-24T13:10:41.342Z,16.47
2018-02-24T13:13:11.817Z,17.87
2018-02-24T13:15:42.885Z,17.23
2018-02-24T13:18:14.990Z,19.00
2018-02-24T13:20:45.026Z,19.00
2018-02-24T13:23:15.861Z,18.10
2018-02-24T13:25:46.553Z,19.10
2018-02-24T13:28:16.828Z,17.90
2018-02-24T13:30:47.338Z,18.70
2018-02-24T13:33:18.426Z,20.20
2018-02-24T13:35:49.999Z,20.33
2018-02-24T13:38:20.901Z,18.03
2018-02-24T13:40:51.436Z,17.63
2018-02-24T13:43:21.650Z,17.87
2018-02-24T13:45:51.626Z,19.23
2018-02-24T13:48:22.009Z,18.17
2018-02-24T13:50:53.088Z,17.13
2018-02-24T13:53:23.483Z,16.70
2018-02-24T13:55:53.355Z,17.10
2018-02-24T13:58:24.390Z,17.00
2018-02-24T14:00:54.944Z,16.97
2018-02-24T14:03:25.178Z,16.90
2018-02-24T14:05:55.825Z,18.03
2018-02-24T14:08:26.087Z,16.90
2018-02-24T14:10:56.330Z,17.47
2018-02-24T14:13:26.220Z,18.97
2018-02-24T14:15:56.138Z,18.60
2018-02-24T14:18:29.738Z,18.47
2018-02-24T14:21:05.099Z,18.83
2018-02-24T14:23:35.043Z,16.90
2018-02-24T14:26:12.406Z,18.87
2018-02-24T14:28:52.442Z,19.03
2018-02-24T14:31:22.708Z,18.20
2018-02-24T14:33:53.237Z,17.93
2018-02-24T14:36:23.643Z,18.37
2018-02-24T14:38:54.425Z,18.30
2018-02-24T14:41:25.023Z,18.47
2018-02-24T14:43:54.885Z,17.53
2018-02-24T14:46:24.803Z,18.00
2018-02-24T14:48:54.673Z,17.07
2018-02-24T14:51:27.209Z,16.73
2018-02-24T14:53:58.470Z,16.30
2018-02-24T14:56:29.054Z,16.10
2018-02-24T14:58:59.995Z,16.80
2018-02-24T15:01:30.825Z,15.90
2018-02-24T15:04:01.766Z,16.03
2018-02-24T15:06:32.157Z,15.77
2018-02-24T15:09:03.606Z,16.30
2018-02-24T15:11:34.368Z,15.40
2018-02-24T15:14:05.283Z,15.60
2018-02-24T15:16:35.725Z,15.23
2018-02-24T15:19:06.152Z,16.50
2018-02-24T15:21:37.437Z,15.13
2018-02-24T15:24:07.295Z,16.87
2018-02-24T15:26:37.263Z,16.13
2018-02-24T15:29:07.333Z,15.87
2018-02-24T15:31:37.829Z,16.80
2018-02-24T15:34:08.169Z,15.50
2018-02-24T15:36:38.525Z,14.97
2018-02-24T15:39:08.333Z,16.23
2018-02-24T15:41:38.035Z,16.13
2018-02-24T15:44:08.620Z,16.13
2018-02-24T15:46:38.341Z,16.27
2018-02-24T15:49:08.061Z,15.63
2018-02-24T15:51:37.847Z,16.63
2018-02-24T15:54:07.601Z,17.03
2018-02-24T15:56:37.347Z,19.00
2018-02-24T15:59:07.117Z,17.83
2018-02-24T16:01:36.843Z,19.77
2018-02-24T16:04:06.612Z,20.53
2018-02-24T16:06:36.348Z,19.87
2018-02-24T16:09:06.123Z,23.10
2018-02-24T16:11:35.846Z,23.37
2018-02-24T16:14:05.564Z,23.03
2018-02-24T16:16:35.392Z,23.13
2018-02-24T16:19:05.173Z,22.40
2018-02-24T16:21:34.992Z,22.93
2018-02-24T16:24:04.747Z,22.20
2018-02-24T16:26:34.513Z,21.43
2018-02-24T16:29:04.381Z,21.63
2018-02-24T16:31:34.118Z,22.73
2018-02-24T16:34:03.851Z,21.57
2018-02-24T16:36:33.690Z,22.97
2018-02-24T16:39:03.581Z,22.33
2018-02-24T16:41:33.357Z,21.20
2018-02-24T16:44:03.118Z,22.33
2018-02-24T16:46:32.953Z,22.40
2018-02-24T16:49:02.756Z,21.80
2018-02-24T16:51:32.550Z,21.87
2018-02-24T16:54:02.312Z,20.73
2018-02-24T16:56:32.042Z,22.33
2018-02-24T16:59:01.766Z,21.17
2018-02-24T17:01:31.571Z,21.37
2018-02-24T17:04:01.347Z,22.00
2018-02-24T17:06:31.120Z,20.63
2018-02-24T17:09:00.835Z,21.10
2018-02-24T17:11:30.580Z,21.73
2018-02-24T17:14:00.380Z,21.63
2018-02-24T17:16:30.121Z,22.43
2018-02-24T17:19:00.034Z,22.90
2018-02-24T17:21:29.768Z,24.10
2018-02-24T17:23:59.525Z,22.33
2018-02-24T17:26:29.315Z,23.07
2018-02-24T17:28:59.068Z,24.40
2018-02-24T17:31:28.852Z,23.37
2018-02-24T17:33:58.624Z,24.93
2018-02-24T17:36:28.328Z,23.67
2018-02-24T17:38:58.111Z,24.57
2018-02-24T17:41:27.876Z,25.40
2018-02-24T17:43:57.618Z,24.47
2018-02-24T17:46:27.400Z,27.43
2018-02-24T17:48:57.124Z,25.30
2018-02-24T17:51:26.864Z,25.50
2018-02-24T17:53:56.625Z,24.07
2018-02-24T17:56:26.337Z,22.47
2018-02-24T17:58:56.090Z,22.63
2018-02-24T18:01:25.811Z,21.87
2018-02-24T18:03:55.645Z,23.73
2018-02-24T18:06:25.389Z,24.63
2018-02-24T18:08:55.200Z,22.87
2018-02-24T18:11:25.002Z,23.97
2018-02-24T18:13:54.833Z,23.20
2018-02-24T18:16:24.623Z,22.70
2018-02-24T18:18:54.431Z,23.17
2018-02-24T18:21:24.166Z,23.33
2018-02-24T18:23:54.034Z,23.03
2018-02-24T18:26:23.801Z,23.90
2018-02-24T18:28:53.571Z,23.57
2018-02-24T18:31:23.338Z,22.10
2018-02-24T18:33:53.089Z,22.73
2018-02-24T18:36:22.942Z,22.23
2018-02-24T18:38:52.733Z,22.40
2018-02-24T18:41:22.513Z,23.00
2018-02-24T18:43:52.301Z,23.13
2018-02-24T18:46:22.069Z,22.33
2018-02-24T18:48:51.849Z,23.00
2018-02-24T18:51:21.618Z,22.93
2018-02-24T18:53:51.373Z,21.93
2018-02-24T18:56:21.190Z,23.37
2018-02-24T18:58:50.928Z,23.57
2018-02-24T19:01:20.700Z,22.43
2018-02-24T19:03:50.438Z,23.33
2018-02-24T19:06:20.183Z,23.30
2018-02-24T19:08:49.959Z,23.43
2018-02-24T19:11:19.751Z,24.57
2018-02-24T19:13:49.544Z,22.93
2018-02-24T19:16:19.279Z,23.50
2018-02-24T19:18:49.005Z,22.73
2018-02-24T19:21:18.756Z,23.37
2018-02-24T19:23:48.484Z,22.67
2018-02-24T19:26:18.276Z,22.47
2018-02-24T19:28:48.096Z,22.60
2018-02-24T19:31:17.854Z,23.47
2018-02-24T19:33:47.646Z,23.13
2018-02-24T19:36:17.383Z,23.30
2018-02-24T19:38:47.138Z,23.90
2018-02-24T19:41:16.953Z,24.87
2018-02-24T19:43:46.709Z,25.53
2018-02-24T19:46:16.585Z,27.47
2018-02-24T19:48:46.361Z,25.93
2018-02-24T19:51:16.136Z,26.73
2018-02-24T19:53:45.871Z,24.13
2018-02-24T19:56:15.590Z,27.53
2018-02-24T19:58:45.419Z,27.10
2018-02-24T20:01:15.144Z,25.20
2018-02-24T20:03:44.870Z,26.53
2018-02-24T20:06:14.624Z,25.60
2018-02-24T20:08:44.347Z,25.57
2018-02-24T20:11:14.069Z,26.00
2018-02-24T20:13:44.486Z,23.27
2018-02-24T20:16:14.290Z,23.43
2018-02-24T20:18:44.093Z,24.13
2018-02-24T20:21:13.821Z,22.03
2018-02-24T20:23:43.513Z,22.27
2018-02-24T20:26:13.267Z,21.70
2018-02-24T20:28:42.984Z,22.17
2018-02-24T20:31:12.744Z,21.07
2018-02-24T20:33:42.538Z,22.80
2018-02-24T20:36:12.253Z,21.93
2018-02-24T20:38:42.011Z,23.53
2018-02-24T20:41:11.740Z,22.00
2018-02-24T20:43:41.484Z,20.87
2018-02-24T20:46:11.303Z,22.80
2018-02-24T20:48:41.070Z,21.67
2018-02-24T20:51:10.816Z,21.63
2018-02-24T20:53:40.585Z,19.73
2018-02-24T20:56:10.339Z,21.90
2018-02-24T20:58:40.073Z,19.90
2018-02-24T21:01:09.839Z,20.97
2018-02-24T21:03:39.651Z,20.77
2018-02-24T21:06:09.473Z,21.10
2018-02-24T21:08:39.207Z,23.50
2018-02-24T21:11:09.061Z,20.87
2018-02-24T21:13:38.878Z,21.80
2018-02-24T21:16:08.627Z,21.43
2018-02-24T21:18:38.364Z,20.20
2018-02-24T21:21:08.092Z,20.63
2018-02-24T21:23:37.899Z,21.23
2018-02-24T21:26:07.690Z,20.53
2018-02-24T21:28:37.404Z,21.50
2018-02-24T21:31:07.161Z,21.30
2018-02-24T21:33:36.887Z,22.00
2018-02-24T21:36:06.695Z,20.80
2018-02-24T21:38:36.498Z,19.87
2018-02-24T21:41:06.218Z,20.97
2018-02-24T21:43:35.980Z,21.63
2018-02-24T21:46:05.729Z,21.83
2018-02-24T21:48:35.462Z,20.80
2018-02-24T21:51:05.238Z,21.57
2018-02-24T21:53:34.979Z,20.70
2018-02-24T21:56:04.798Z,20.20
2018-02-24T21:58:34.512Z,21.03
2018-02-24T22:01:04.207Z,21.07
2018-02-24T22:03:33.988Z,21.33
2018-02-24T22:06:03.725Z,21.83
2018-02-24T22:08:33.508Z,22.50
2018-02-24T22:11:03.329Z,21.33
2018-02-24T22:13:33.136Z,20.13
2018-02-24T22:16:02.910Z,19.37
2018-02-24T22:18:32.763Z,20.50
2018-02-24T22:21:02.509Z,22.00
2018-02-24T22:23:32.319Z,22.00
2018-02-24T22:26:02.119Z,21.90
2018-02-24T22:28:31.881Z,20.87
2018-02-24T22:31:01.706Z,21.30
2018-02-24T22:33:31.479Z,21.10
2018-02-24T22:36:01.225Z,20.37
2018-02-24T22:38:30.954Z,21.27
2018-02-24T22:41:00.712Z,21.63
2018-02-24T22:43:30.415Z,20.67
2018-02-24T22:46:00.124Z,21.37
2018-02-24T22:48:35.497Z,20.57
2018-02-24T22:51:05.255Z,19.93
2018-02-24T22:53:35.018Z,21.07
2018-02-24T22:56:04.783Z,21.17
2018-02-24T22:58:34.542Z,20.17
2018-02-24T23:01:04.307Z,20.90
2018-02-24T23:03:34.063Z,20.73
2018-02-24T23:06:03.914Z,21.93
2018-02-24T23:08:33.666Z,21.90
2018-02-24T23:11:03.362Z,22.10
2018-02-24T23:13:33.123Z,21.37
2018-02-24T23:16:02.816Z,20.80
2018-02-24T23:18:32.592Z,20.67
2018-02-24T23:21:02.291Z,21.13
2018-02-24T23:23:32.017Z,21.23
2018-02-24T23:26:01.772Z,21.23
2018-02-24T23:28:31.498Z,22.47
2018-02-24T23:31:01.243Z,21.80
2018-02-24T23:33:31.068Z,21.97
2018-02-24T23:36:00.764Z,20.10
2018-02-24T23:38:30.522Z,20.73
2018-02-24T23:41:00.298Z,18.90
2018-02-24T23:43:30.032Z,19.93
2018-02-24T23:45:59.789Z,21.27
2018-02-24T23:48:29.538Z,19.70
2018-02-24T23:50:59.303Z,20.53
2018-02-24T23:53:29.058Z,21.30
2018-02-24T23:55:58.927Z,19.87
2018-02-24T23:58:28.711Z,20.73
